Thursday, April 17, 2014, 5:34 AM EDT

KSBY, Salisbury-wicomico Cty Reg

Location: Salisbury, MD, United States Lat: 38.333
Local Time: 5:34 AM EDT ( 9:34 GMT) Lon: -75.5
Time Zone: US/Eastern Elev: 52 ft

Show me the last for .
Show Decoded

2014-04-17 04:54 METAR KSBY 170854Z AUTO 00000KT 10SM CLR 01/M02 A3055 RMK AO2 SLP349 T00111017
                 53007 =
2014-04-17 03:54 METAR KSBY 170754Z AUTO 00000KT 10SM CLR 01/M02 A3054 RMK AO2 SLP345 T00111017 =
2014-04-17 02:54 METAR KSBY 170654Z AUTO 00000KT 10SM CLR 01/M01 A3053 RMK AO2 SLP342 T00111011 =
2014-04-17 01:54 METAR KSBY 170554Z AUTO 00000KT 10SM CLR 02/M01 A3053 RMK AO2 SLP342 T00171011
                 10072 20011 50003 =
2014-04-17 00:54 METAR KSBY 170454Z AUTO 00000KT 10SM CLR 02/M02 A3054 RMK AO2 SLP345 T00171017
                 401060011 =
2014-04-16 23:54 METAR KSBY 170354Z AUTO 00000KT 10SM CLR 02/M02 A3054 RMK AO2 SLP345 T00221017 =
2014-04-16 22:54 METAR KSBY 170254Z AUTO 00000KT 10SM CLR 03/M01 A3052 RMK AO2 SLP339 T00331011
                 51021 =
2014-04-16 21:54 METAR KSBY 170154Z 08003KT 10SM CLR 04/M01 A3052 RMK AO2 SLP336 T00391011 =
2014-04-16 20:54 METAR KSBY 170054Z 09005KT 10SM CLR 06/M02 A3049 RMK AO2 SLP326 T00561022 =
2014-04-16 19:54 METAR KSBY 162354Z 01004KT 10SM CLR 07/M05 A3046 RMK AO2 SLP318 T00671050 10106
                 20067 53021 =
2014-04-16 18:54 METAR KSBY 162254Z 04009KT 10SM CLR 09/M06 A3044 RMK AO2 SLP310 T00891056 =
2014-04-16 17:54 METAR KSBY 162154Z 03008KT 10SM CLR 10/M04 A3041 RMK AO2 SLP301 T01001044 =
2014-04-16 16:54 METAR KSBY 162054Z 02008KT 10SM CLR 11/M04 A3040 RMK AO2 SLP296 T01061044 55004
                 =
2014-04-16 15:54 METAR KSBY 161954Z 04010G16KT 10SM CLR 11/M04 A3039 RMK AO2 SLP294 T01061044 =
2014-04-16 14:54 METAR KSBY 161854Z 36009G20KT 10SM CLR 09/M04 A3040 RMK AO2 SLP295 T00941044 =
2014-04-16 13:54 METAR KSBY 161754Z 36013G20KT 320V030 10SM CLR 09/M04 A3041 RMK AO2 SLP301
                 T00891044 10089 20022 50007 =
2014-04-16 12:54 METAR KSBY 161654Z 33012G18KT 10SM CLR 07/M06 A3042 RMK AO2 SLP303 T00721061 =
2014-04-16 11:54 METAR KSBY 161554Z 34015G21KT 10SM CLR 07/M07 A3041 RMK AO2 SLP299 T00671067 =
2014-04-16 10:54 METAR KSBY 161454Z 34014G23KT 10SM CLR 04/M08 A3039 RMK AO2 SLP294 T00441078
                 53035 =
2014-04-16 09:54 METAR KSBY 161354Z 36014G22KT 10SM CLR 04/M08 A3036 RMK AO2 PK WND 33026/1303
                 SLP283 T00391083 =
2014-04-16 08:54 METAR KSBY 161254Z 33020G26KT 10SM CLR 03/M08 A3031 RMK AO2 PK WND 34026/1252
                 SLP266 T00281078 =
2014-04-16 07:54 METAR KSBY 161154Z 34012G22KT 10SM CLR 02/M08 A3029 RMK AO2 SLP259 70171
                 T00221078 10039 20011 51048 =
2014-04-16 06:54 METAR KSBY 161054Z 34012KT 10SM CLR 02/M07 A3025 =
2014-04-16 05:54 METAR KSBY 160954Z AUTO 33013G21KT 10SM CLR 02/M06 A3019 RMK AO2 SLP225
                 T00171061 TSNO =

Support USWX by starting your Amazon purchase here.